Time,TemperatureF,DewpointF,PressureIn,WindDirection,WindDirectionDegrees,WindSpeedMPH,WindSpeedGustMPH,Humidity,HourlyPrecipIn,Conditions,Clouds,dailyrainin,SoftwareType,DateUTC
2013-03-15 00:02:00,42.0,29.0,-100.00,ENE,68,1.0,4.0,59,-99.99,,,-99.99,,2013-03-15 07:02:00,
2013-03-15 00:12:00,43.0,28.0,-100.00,North,357,1.0,5.0,56,-99.99,,,-99.99,,2013-03-15 07:12:00,
2013-03-15 00:22:00,43.0,28.0,-100.00,WSW,243,1.0,4.0,56,-99.99,,,-99.99,,2013-03-15 07:22:00,
2013-03-15 00:32:00,43.0,28.0,-100.00,SSE,160,3.0,6.0,53,-99.99,,,-99.99,,2013-03-15 07:32:00,
2013-03-15 00:42:00,43.0,28.0,-100.00,ENE,75,3.0,4.0,55,-99.99,,,-99.99,,2013-03-15 07:42:00,
2013-03-15 00:52:00,42.0,28.0,-100.00,East,80,2.0,5.0,57,-99.99,,,-99.99,,2013-03-15 07:52:00,
2013-03-15 01:02:00,42.0,28.0,-100.00,NNW,344,2.0,5.0,57,-99.99,,,-99.99,,2013-03-15 08:02:00,
2013-03-15 01:12:00,41.0,28.0,-100.00,North,359,0.0,2.0,58,-99.99,,,-99.99,,2013-03-15 08:12:00,
2013-03-15 01:22:00,42.0,26.0,-100.00,SE,138,3.0,5.0,54,-99.99,,,-99.99,,2013-03-15 08:22:00,
2013-03-15 01:32:00,41.0,27.0,-100.00,SSW,202,2.0,6.0,57,-99.99,,,-99.99,,2013-03-15 08:32:00,
2013-03-15 01:42:00,43.0,27.0,-100.00,SE,136,2.0,4.0,51,-99.99,,,-99.99,,2013-03-15 08:42:00,
2013-03-15 01:52:00,43.0,27.0,-100.00,ESE,109,4.0,5.0,53,-99.99,,,-99.99,,2013-03-15 08:52:00,
2013-03-15 02:02:00,44.0,26.0,-100.00,ESE,121,4.0,6.0,49,-99.99,,,-99.99,,2013-03-15 09:02:00,
2013-03-15 02:12:00,43.0,29.0,-100.00,East,100,4.0,7.0,57,-99.99,,,-99.99,,2013-03-15 09:12:00,
2013-03-15 02:22:00,43.0,28.0,-100.00,SE,127,2.0,7.0,55,-99.99,,,-99.99,,2013-03-15 09:22:00,
2013-03-15 02:33:00,45.0,27.0,-100.00,ESE,121,7.0,9.0,49,-99.99,,,-99.99,,2013-03-15 09:33:00,
2013-03-15 02:42:00,45.0,27.0,-100.00,ESE,123,6.0,9.0,49,-99.99,,,-99.99,,2013-03-15 09:42:00,
2013-03-15 02:53:00,43.0,28.0,-100.00,ESE,109,4.0,6.0,55,-99.99,,,-99.99,,2013-03-15 09:53:00,
2013-03-15 03:02:00,41.0,28.0,-100.00,SE,141,2.0,4.0,60,-99.99,,,-99.99,,2013-03-15 10:02:00,
2013-03-15 03:12:00,41.0,27.0,-100.00,SSW,198,2.0,6.0,57,-99.99,,,-99.99,,2013-03-15 10:12:00,
2013-03-15 03:23:00,40.0,28.0,-100.00,SSE,160,2.0,9.0,61,-99.99,,,-99.99,,2013-03-15 10:23:00,
2013-03-15 03:32:00,43.0,26.0,-100.00,ESE,119,9.0,11.0,51,-99.99,,,-99.99,,2013-03-15 10:32:00,
2013-03-15 03:42:00,44.0,25.0,-100.00,SE,127,8.0,11.0,47,-99.99,,,-99.99,,2013-03-15 10:42:00,
2013-03-15 03:52:00,43.0,26.0,-100.00,East,90,6.0,9.0,52,-99.99,,,-99.99,,2013-03-15 10:52:00,
2013-03-15 04:02:00,43.0,27.0,-100.00,ESE,107,6.0,8.0,53,-99.99,,,-99.99,,2013-03-15 11:02:00,
2013-03-15 04:12:00,42.0,26.0,-100.00,SE,126,2.0,7.0,53,-99.99,,,-99.99,,2013-03-15 11:12:00,
2013-03-15 04:22:00,37.0,27.0,-100.00,NW,308,3.0,6.0,68,-99.99,,,-99.99,,2013-03-15 11:22:00,
2013-03-15 04:32:00,38.0,27.0,-100.00,NE,47,2.0,6.0,63,-99.99,,,-99.99,,2013-03-15 11:32:00,
2013-03-15 04:42:00,38.0,28.0,-100.00,ESE,104,3.0,6.0,65,-99.99,,,-99.99,,2013-03-15 11:42:00,
2013-03-15 04:52:00,41.0,27.0,-100.00,ESE,107,5.0,7.0,56,-99.99,,,-99.99,,2013-03-15 11:52:00,
2013-03-15 05:02:00,39.0,27.0,-100.00,SE,131,2.0,4.0,61,-99.99,,,-99.99,,2013-03-15 12:02:00,
2013-03-15 05:12:00,37.0,27.0,-100.00,ENE,59,1.0,4.0,66,-99.99,,,-99.99,,2013-03-15 12:12:00,
2013-03-15 05:22:00,36.0,27.0,-100.00,East,92,1.0,4.0,69,-99.99,,,-99.99,,2013-03-15 12:22:00,
2013-03-15 05:32:00,43.0,24.0,-100.00,East,90,3.0,6.0,46,-99.99,,,-99.99,,2013-03-15 12:32:00,
2013-03-15 05:42:00,39.0,25.0,-100.00,ESE,104,2.0,5.0,58,-99.99,,,-99.99,,2013-03-15 12:42:00,
2013-03-15 05:52:00,39.0,25.0,-100.00,ESE,104,2.0,5.0,58,-99.99,,,-99.99,,2013-03-15 12:52:00,
2013-03-15 06:02:00,39.0,25.0,-100.00,North,350,2.0,5.0,57,-99.99,,,-99.99,,2013-03-15 13:02:00,
2013-03-15 06:12:00,39.0,26.0,-100.00,ENE,62,1.0,2.0,59,-99.99,,,-99.99,,2013-03-15 13:12:00,
2013-03-15 06:22:00,39.0,25.0,-100.00,NNE,20,1.0,3.0,57,-99.99,,,-99.99,,2013-03-15 13:22:00,
2013-03-15 06:32:00,39.0,25.0,-100.00,ENE,61,0.0,2.0,57,-99.99,,,-99.99,,2013-03-15 13:32:00,
2013-03-15 06:42:00,36.0,25.0,-100.00,ENE,62,2.0,3.0,66,-99.99,,,-99.99,,2013-03-15 13:42:00,
2013-03-15 06:52:00,35.0,26.0,-100.00,NE,38,2.0,5.0,69,-99.99,,,-99.99,,2013-03-15 13:52:00,
2013-03-15 07:02:00,35.0,26.0,-100.00,NE,38,2.0,5.0,69,-99.99,,,-99.99,,2013-03-15 14:02:00,
2013-03-15 07:12:00,36.0,25.0,-100.00,NNE,17,2.0,3.0,65,-99.99,,,-99.99,,2013-03-15 14:12:00,
2013-03-15 07:22:00,37.0,25.0,-100.00,North,354,1.0,3.0,61,-99.99,,,-99.99,,2013-03-15 14:22:00,
2013-03-15 07:32:00,37.0,25.0,-100.00,North,354,1.0,3.0,61,-99.99,,,-99.99,,2013-03-15 14:32:00,
2013-03-15 07:42:00,32.0,25.0,-100.00,NNW,340,0.0,0.0,76,-99.99,,,-99.99,,2013-03-15 14:42:00,
2013-03-15 07:53:00,32.0,25.0,-100.00,NNW,340,0.0,0.0,76,-99.99,,,-99.99,,2013-03-15 14:53:00,
2013-03-15 08:02:00,33.0,26.0,-100.00,SE,124,2.0,3.0,75,-99.99,,,-99.99,,2013-03-15 15:02:00,
2013-03-15 08:10:00,40.0,28.0,-100.00,SSE,165,3.0,5.0,60,-99.99,,,-99.99,,2013-03-15 15:10:00,
2013-03-15 08:12:00,33.0,26.0,-100.00,ESE,107,2.0,4.0,73,-99.99,,,-99.99,,2013-03-15 15:12:00,
2013-03-15 08:22:00,32.0,26.0,-100.00,SSE,167,2.0,5.0,78,-99.99,,,-99.99,,2013-03-15 15:22:00,
2013-03-15 08:33:00,33.0,28.0,-100.00,SSE,158,2.0,5.0,80,-99.99,,,-99.99,,2013-03-15 15:33:00,
2013-03-15 08:42:00,33.0,28.0,-100.00,SSE,158,2.0,5.0,80,-99.99,,,-99.99,,2013-03-15 15:42:00,
2013-03-15 08:52:00,40.0,28.0,-100.00,SSE,165,3.0,5.0,60,-99.99,,,-99.99,,2013-03-15 15:52:00,
2013-03-15 09:02:00,40.0,28.0,-100.00,SSE,165,3.0,5.0,60,-99.99,,,-99.99,,2013-03-15 16:02:00,
2013-03-15 09:22:00,44.0,27.0,-100.00,SE,137,6.0,9.0,50,-99.99,,,-99.99,,2013-03-15 16:22:00,
2013-03-15 09:32:00,45.0,26.0,-100.00,SE,136,6.0,8.0,47,-99.99,,,-99.99,,2013-03-15 16:32:00,
2013-03-15 09:42:00,46.0,27.0,-100.00,SE,136,4.0,6.0,47,-99.99,,,-99.99,,2013-03-15 16:42:00,
2013-03-15 09:52:00,48.0,24.0,-100.00,SE,138,4.0,6.0,38,-99.99,,,-99.99,,2013-03-15 16:52:00,
2013-03-15 10:02:00,50.0,24.0,-100.00,SSE,150,2.0,5.0,36,-99.99,,,-99.99,,2013-03-15 17:02:00,
2013-03-15 10:12:00,50.0,24.0,-100.00,SSE,150,2.0,5.0,36,-99.99,,,-99.99,,2013-03-15 17:12:00,
2013-03-15 10:32:00,53.0,26.0,-100.00,SW,223,1.0,4.0,34,-99.99,,,-99.99,,2013-03-15 17:32:00,
2013-03-15 10:42:00,57.0,25.0,-100.00,West,261,0.0,3.0,29,-99.99,,,-99.99,,2013-03-15 17:42:00,
2013-03-15 10:53:00,56.0,23.0,-100.00,South,184,0.0,4.0,27,-99.99,,,-99.99,,2013-03-15 17:53:00,
2013-03-15 11:02:00,57.0,25.0,-100.00,SE,131,1.0,4.0,29,-99.99,,,-99.99,,2013-03-15 18:02:00,
2013-03-15 11:12:00,56.0,24.0,-100.00,SW,222,1.0,3.0,28,-99.99,,,-99.99,,2013-03-15 18:12:00,
2013-03-15 11:22:00,60.0,24.0,-100.00,SW,232,1.0,4.0,25,-99.99,,,-99.99,,2013-03-15 18:22:00,
2013-03-15 11:32:00,61.0,24.0,-100.00,South,171,1.0,4.0,24,-99.99,,,-99.99,,2013-03-15 18:32:00,
2013-03-15 11:42:00,61.0,20.0,-100.00,SW,215,2.0,5.0,20,-99.99,,,-99.99,,2013-03-15 18:42:00,
2013-03-15 11:52:00,61.0,20.0,-100.00,SW,215,2.0,5.0,20,-99.99,,,-99.99,,2013-03-15 18:52:00,
2013-03-15 12:02:00,63.0,21.0,-100.00,South,188,2.0,6.0,20,-99.99,,,-99.99,,2013-03-15 19:02:00,
2013-03-15 12:12:00,62.0,22.0,-100.00,East,85,2.0,5.0,21,-99.99,,,-99.99,,2013-03-15 19:12:00,
2013-03-15 12:22:00,63.0,18.0,-100.00,SSE,160,2.0,7.0,17,-99.99,,,-99.99,,2013-03-15 19:22:00,
2013-03-15 12:32:00,64.0,17.0,-100.00,SSW,206,1.0,5.0,16,-99.99,,,-99.99,,2013-03-15 19:32:00,
2013-03-15 12:42:00,62.0,17.0,-100.00,North,6,4.0,8.0,17,-99.99,,,-99.99,,2013-03-15 19:42:00,
2013-03-15 12:52:00,63.0,15.0,-100.00,NW,325,3.0,9.0,15,-99.99,,,-99.99,,2013-03-15 19:52:00,
2013-03-15 13:02:00,63.0,16.0,-100.00,North,350,5.0,10.0,16,-99.99,,,-99.99,,2013-03-15 20:02:00,
2013-03-15 13:12:00,63.0,19.0,-100.00,North,7,4.0,8.0,18,-99.99,,,-99.99,,2013-03-15 20:12:00,
2013-03-15 13:22:00,63.0,16.0,-100.00,NW,326,7.0,14.0,16,-99.99,,,-99.99,,2013-03-15 20:22:00,
2013-03-15 13:31:00,63.0,16.0,-100.00,NW,315,6.0,12.0,16,-99.99,,,-99.99,,2013-03-15 20:31:00,
2013-03-15 13:42:00,63.0,16.0,-100.00,NW,315,6.0,12.0,16,-99.99,,,-99.99,,2013-03-15 20:42:00,
2013-03-15 14:02:00,63.0,15.0,-100.00,WSW,248,6.0,11.0,15,-99.99,,,-99.99,,2013-03-15 21:02:00,
2013-03-15 14:12:00,63.0,15.0,-100.00,SW,232,8.0,17.0,15,-99.99,,,-99.99,,2013-03-15 21:12:00,
2013-03-15 14:22:00,63.0,16.0,-100.00,West,263,9.0,16.0,16,-99.99,,,-99.99,,2013-03-15 21:22:00,
2013-03-15 14:32:00,63.0,16.0,-100.00,West,263,9.0,16.0,16,-99.99,,,-99.99,,2013-03-15 21:32:00,
2013-03-15 14:43:00,63.0,15.0,-100.00,WNW,284,10.0,15.0,15,-99.99,,,-99.99,,2013-03-15 21:43:00,
2013-03-15 14:52:00,64.0,15.0,-100.00,West,277,9.0,13.0,15,-99.99,,,-99.99,,2013-03-15 21:52:00,
2013-03-15 15:03:00,64.0,15.0,-100.00,West,277,9.0,13.0,15,-99.99,,,-99.99,,2013-03-15 22:03:00,
2013-03-15 15:13:00,64.0,17.0,-100.00,West,280,8.0,12.0,16,-99.99,,,-99.99,,2013-03-15 22:13:00,
2013-03-15 15:22:00,63.0,18.0,-100.00,WSW,240,9.0,15.0,17,-99.99,,,-99.99,,2013-03-15 22:22:00,
2013-03-15 15:32:00,64.0,17.0,-100.00,WSW,244,7.0,17.0,16,-99.99,,,-99.99,,2013-03-15 22:32:00,
2013-03-15 15:42:00,65.0,18.0,-100.00,WSW,253,8.0,17.0,16,-99.99,,,-99.99,,2013-03-15 22:42:00,
2013-03-15 15:52:00,65.0,18.0,-100.00,WSW,253,8.0,17.0,16,-99.99,,,-99.99,,2013-03-15 22:52:00,
2013-03-15 16:02:00,64.0,17.0,-100.00,WSW,243,10.0,18.0,16,-99.99,,,-99.99,,2013-03-15 23:02:00,
2013-03-15 16:12:00,64.0,18.0,-100.00,SW,232,8.0,16.0,17,-99.99,,,-99.99,,2013-03-15 23:12:00,
2013-03-15 16:22:00,64.0,20.0,-100.00,WSW,251,7.0,15.0,18,-99.99,,,-99.99,,2013-03-15 23:22:00,
2013-03-15 16:32:00,63.0,21.0,-100.00,WNW,292,6.0,12.0,20,-99.99,,,-99.99,,2013-03-15 23:32:00,
2013-03-15 16:42:00,63.0,20.0,-100.00,NNW,335,9.0,16.0,19,-99.99,,,-99.99,,2013-03-15 23:42:00,
2013-03-15 16:53:00,62.0,20.0,-100.00,North,352,3.0,8.0,19,-99.99,,,-99.99,,2013-03-15 23:53:00,
2013-03-15 17:02:00,62.0,20.0,-100.00,North,352,3.0,8.0,19,-99.99,,,-99.99,,2013-03-16 00:02:00,
2013-03-15 17:12:00,62.0,21.0,-100.00,NW,322,9.0,13.0,21,-99.99,,,-99.99,,2013-03-16 00:12:00,
2013-03-15 17:22:00,61.0,23.0,-100.00,NNW,330,10.0,16.0,23,-99.99,,,-99.99,,2013-03-16 00:22:00,
2013-03-15 17:32:00,61.0,23.0,-100.00,NNW,330,10.0,16.0,23,-99.99,,,-99.99,,2013-03-16 00:32:00,
2013-03-15 17:42:00,60.0,22.0,-100.00,NW,323,9.0,14.0,23,-99.99,,,-99.99,,2013-03-16 00:42:00,
2013-03-15 17:50:00,59.0,23.0,-100.00,NW,325,9.0,13.0,25,-99.99,,,-99.99,,2013-03-16 00:50:00,
2013-03-15 17:52:00,60.0,23.0,-100.00,NW,326,9.0,13.0,24,-99.99,,,-99.99,,2013-03-16 00:52:00,
2013-03-15 18:02:00,59.0,23.0,-100.00,NW,326,10.0,14.0,24,-99.99,,,-99.99,,2013-03-16 01:02:00,
2013-03-15 18:12:00,59.0,22.0,-100.00,NNW,332,8.0,12.0,24,-99.99,,,-99.99,,2013-03-16 01:12:00,
2013-03-15 18:21:00,59.0,22.0,-100.00,NNW,332,8.0,12.0,24,-99.99,,,-99.99,,2013-03-16 01:21:00,
2013-03-15 18:32:00,59.0,23.0,-100.00,NW,325,9.0,13.0,25,-99.99,,,-99.99,,2013-03-16 01:32:00,
2013-03-15 18:42:00,59.0,23.0,-100.00,NW,325,9.0,13.0,25,-99.99,,,-99.99,,2013-03-16 01:42:00,
2013-03-15 19:00:00,51.0,24.0,-100.00,NW,312,6.0,9.0,34,-99.99,,,-99.99,,2013-03-16 02:00:00,
2013-03-15 19:02:00,56.0,23.0,-100.00,NW,313,10.0,13.0,27,-99.99,,,-99.99,,2013-03-16 02:02:00,
2013-03-15 19:12:00,55.0,22.0,-100.00,NW,313,9.0,13.0,27,-99.99,,,-99.99,,2013-03-16 02:12:00,
2013-03-15 19:22:00,54.0,22.0,-100.00,NW,313,8.0,12.0,28,-99.99,,,-99.99,,2013-03-16 02:22:00,
2013-03-15 19:32:00,54.0,22.0,-100.00,NW,313,8.0,12.0,28,-99.99,,,-99.99,,2013-03-16 02:32:00,
2013-03-15 19:43:00,51.0,24.0,-100.00,NW,312,6.0,9.0,34,-99.99,,,-99.99,,2013-03-16 02:43:00,
2013-03-15 19:52:00,51.0,24.0,-100.00,NW,312,6.0,9.0,34,-99.99,,,-99.99,,2013-03-16 02:52:00,
2013-03-15 20:12:00,50.0,22.0,-100.00,North,10,4.0,7.0,32,-99.99,,,-99.99,,2013-03-16 03:12:00,
2013-03-15 20:22:00,50.0,22.0,-100.00,NNE,13,6.0,9.0,32,-99.99,,,-99.99,,2013-03-16 03:22:00,
2013-03-15 20:32:00,50.0,22.0,-100.00,NNE,13,6.0,9.0,32,-99.99,,,-99.99,,2013-03-16 03:32:00,
2013-03-15 21:02:00,49.0,21.0,-100.00,North,350,6.0,7.0,32,-99.99,,,-99.99,,2013-03-16 04:02:00,
2013-03-15 21:12:00,49.0,21.0,-100.00,North,350,6.0,7.0,32,-99.99,,,-99.99,,2013-03-16 04:12:00,
2013-03-15 21:22:00,47.0,23.0,-100.00,North,8,6.0,7.0,38,-99.99,,,-99.99,,2013-03-16 04:22:00,
2013-03-15 21:32:00,47.0,23.0,-100.00,North,8,6.0,7.0,38,-99.99,,,-99.99,,2013-03-16 04:32:00,
2013-03-15 21:42:00,49.0,19.0,-100.00,North,7,4.0,6.0,31,-99.99,,,-99.99,,2013-03-16 04:42:00,
2013-03-15 21:52:00,48.0,20.0,-100.00,NNE,17,3.0,5.0,33,-99.99,,,-99.99,,2013-03-16 04:52:00,
2013-03-15 22:02:00,47.0,20.0,-100.00,North,1,4.0,7.0,33,-99.99,,,-99.99,,2013-03-16 05:02:00,
2013-03-15 22:12:00,46.0,20.0,-100.00,NNW,336,3.0,6.0,34,-99.99,,,-99.99,,2013-03-16 05:12:00,
2013-03-15 22:21:00,46.0,21.0,-100.00,NNW,346,2.0,3.0,37,-99.99,,,-99.99,,2013-03-16 05:21:00,
2013-03-15 22:32:00,46.0,21.0,-100.00,NNE,16,4.0,7.0,37,-99.99,,,-99.99,,2013-03-16 05:32:00,
2013-03-15 22:42:00,46.0,20.0,-100.00,North,354,5.0,8.0,35,-99.99,,,-99.99,,2013-03-16 05:42:00,
2013-03-15 22:52:00,46.0,20.0,-100.00,North,354,5.0,8.0,35,-99.99,,,-99.99,,2013-03-16 05:52:00,
2013-03-15 23:12:00,44.0,21.0,-100.00,NNE,32,3.0,5.0,39,-99.99,,,-99.99,,2013-03-16 06:12:00,
2013-03-15 23:21:00,43.0,22.0,-100.00,ENE,61,3.0,5.0,44,-99.99,,,-99.99,,2013-03-16 06:21:00,
2013-03-15 23:32:00,41.0,25.0,-100.00,ENE,78,3.0,5.0,51,-99.99,,,-99.99,,2013-03-16 06:32:00,
2013-03-15 23:42:00,40.0,25.0,-100.00,NE,56,4.0,6.0,55,-99.99,,,-99.99,,2013-03-16 06:42:00,
2013-03-15 23:52:00,43.0,24.0,-100.00,NE,52,4.0,5.0,47,-99.99,,,-99.99,,2013-03-16 06:52:00,